Time;durP1;ratioP1;P1;durP2;ratioP2;P2;SDS_P1;SDS_P2;PMS_P1;PMS_P2;Temp;Humidity;BMP_temperature;BMP_pressure;BME280_temperature;BME280_humidity;BME280_pressure;Samples;Min_cycle;Max_cycle;Signal;HPM_P1;HPM_P2
2021/07/16 00:02:22;;;;;;;16.08;2.97;;;21.20;78.90;;;;;;5017996;28;20125;-66
2021/07/16 00:04:48;;;;;;;18.23;3.53;;;21.20;78.80;;;;;;5020079;28;20017;-66
2021/07/16 00:07:14;;;;;;;18.95;3.88;;;21.20;78.80;;;;;;5014759;28;20391;-66
2021/07/16 00:09:39;;;;;;;19.30;3.42;;;21.20;79.10;;;;;;5025336;28;20474;-66
2021/07/16 00:12:05;;;;;;;15.02;3.33;;;21.20;78.90;;;;;;5031846;28;20030;-67
2021/07/16 00:14:32;;;;;;;13.48;3.13;;;21.20;79.10;;;;;;5036819;28;20037;-66
2021/07/16 00:16:59;;;;;;;21.52;3.85;;;21.20;79.00;;;;;;5042452;28;20053;-66
2021/07/16 00:19:25;;;;;;;18.90;4.05;;;21.20;79.50;;;;;;5031961;28;20025;-66
2021/07/16 00:21:50;;;;;;;17.08;3.47;;;21.10;79.10;;;;;;5019387;28;20390;-66
2021/07/16 00:24:16;;;;;;;16.73;2.95;;;21.10;79.00;;;;;;5039197;28;20095;-66
2021/07/16 00:26:42;;;;;;;25.42;4.10;;;21.10;78.90;;;;;;5018921;28;20117;-66
2021/07/16 00:29:08;;;;;;;20.33;4.00;;;21.10;78.90;;;;;;5031744;28;20117;-66
2021/07/16 00:31:35;;;;;;;14.65;3.08;;;21.10;79.10;;;;;;5027711;28;20091;-66
2021/07/16 00:34:01;;;;;;;18.88;3.38;;;21.10;78.90;;;;;;5020550;28;20492;-66
2021/07/16 00:36:27;;;;;;;19.23;3.40;;;21.10;78.90;;;;;;5023721;28;20069;-66
2021/07/16 00:38:53;;;;;;;22.33;4.70;;;21.00;78.90;;;;;;5012688;28;20451;-67
2021/07/16 00:41:18;;;;;;;13.43;3.50;;;21.10;78.90;;;;;;5013890;28;20109;-66
2021/07/16 00:43:47;;;;;;;18.05;3.50;;;21.10;79.00;;;;;;5013799;28;20034;-66
2021/07/16 00:46:12;;;;;;;17.38;3.28;;;21.00;78.40;;;;;;5012162;28;20070;-66
2021/07/16 00:48:38;;;;;;;17.88;3.90;;;21.00;78.40;;;;;;5020255;28;20080;-66
2021/07/16 00:51:04;;;;;;;15.85;3.40;;;21.00;78.20;;;;;;5030077;28;20022;-66
2021/07/16 00:53:29;;;;;;;13.65;3.10;;;21.00;78.20;;;;;;5019291;28;20037;-66
2021/07/16 00:55:55;;;;;;;8.85;2.42;;;21.00;78.20;;;;;;5011404;28;20037;-66
2021/07/16 00:58:22;;;;;;;18.70;4.10;;;21.00;78.00;;;;;;5024245;28;20041;-66
2021/07/16 01:00:48;;;;;;;15.68;3.60;;;21.00;77.80;;;;;;5018461;28;20052;-66
2021/07/16 01:03:14;;;;;;;13.75;3.42;;;21.00;77.70;;;;;;5019593;28;20529;-66
2021/07/16 01:05:42;;;;;;;15.75;3.30;;;21.00;77.80;;;;;;5019974;28;20025;-67
2021/07/16 01:08:08;;;;;;;18.73;3.00;;;21.00;77.50;;;;;;5016421;28;20111;-66
2021/07/16 01:10:33;;;;;;;17.80;3.17;;;21.00;77.70;;;;;;5025641;28;20431;-66
2021/07/16 01:13:00;;;;;;;17.25;3.33;;;21.00;77.60;;;;;;5033994;28;20061;-66
2021/07/16 01:15:30;;;;;;;16.05;2.97;;;21.00;77.50;;;;;;5042084;28;20078;-67
2021/07/16 01:17:56;;;;;;;24.08;4.20;;;20.90;77.30;;;;;;5012800;28;20501;-66
2021/07/16 01:20:30;;;;;;;14.95;3.55;;;21.00;77.40;;;;;;5035517;28;20026;-66
2021/07/16 01:22:59;;;;;;;23.58;4.40;;;21.00;77.20;;;;;;5012673;28;20036;-66
2021/07/16 01:25:30;;;;;;;20.70;3.50;;;21.00;77.40;;;;;;5025250;28;20049;-66
2021/07/16 01:27:58;;;;;;;12.27;2.72;;;21.00;78.00;;;;;;5029413;28;20496;-66
2021/07/16 01:30:31;;;;;;;17.30;3.53;;;21.00;77.30;;;;;;5021796;28;20157;-66
2021/07/16 01:32:57;;;;;;;21.80;4.25;;;21.00;77.30;;;;;;5021012;28;20604;-66
2021/07/16 01:35:25;;;;;;;20.73;3.70;;;20.90;77.30;;;;;;5015168;28;20390;-66
2021/07/16 01:37:51;;;;;;;18.63;3.65;;;21.00;77.20;;;;;;5026515;28;20536;-66
2021/07/16 01:40:20;;;;;;;21.92;3.15;;;20.90;77.10;;;;;;5018449;28;20129;-66
2021/07/16 01:42:52;;;;;;;19.55;3.92;;;20.90;77.10;;;;;;5013435;28;20040;-66
2021/07/16 01:45:23;;;;;;;21.70;4.32;;;20.90;77.30;;;;;;5040902;28;20075;-66
2021/07/16 01:47:56;;;;;;;18.58;2.92;;;20.90;77.50;;;;;;5029854;28;20034;-66
2021/07/16 01:50:22;;;;;;;;;;;20.90;77.30;;;;;;5018170;28;20121;-66
2021/07/16 01:52:49;;;;;;;18.23;3.08;;;20.90;77.90;;;;;;5018343;28;19905;-66
2021/07/16 01:55:17;;;;;;;18.98;3.22;;;20.90;77.50;;;;;;5030013;28;20030;-66
2021/07/16 01:57:50;;;;;;;25.42;4.13;;;20.90;77.50;;;;;;5024918;28;20409;-66
2021/07/16 02:00:24;;;;;;;22.33;3.22;;;20.90;77.50;;;;;;5025996;28;20120;-66
2021/07/16 02:02:51;;;;;;;;;;;20.90;77.50;;;;;;5016631;28;20029;-66
2021/07/16 02:05:22;;;;;;;21.48;3.33;;;20.90;77.80;;;;;;5026638;28;19916;-66
2021/07/16 02:07:50;;;;;;;27.20;4.70;;;20.90;77.60;;;;;;5022606;28;20428;-66
2021/07/16 02:10:19;;;;;;;18.27;4.18;;;20.90;77.60;;;;;;5021705;28;20565;-66
2021/07/16 02:12:45;;;;;;;29.60;3.67;;;20.80;77.70;;;;;;5030554;28;20029;-66
2021/07/16 02:15:17;;;;;;;23.73;3.42;;;20.90;77.80;;;;;;5031609;28;20036;-66
2021/07/16 02:17:44;;;;;;;29.58;4.40;;;20.90;77.90;;;;;;5019845;28;20108;-67
2021/07/16 02:20:27;;;;;;;20.25;3.08;;;20.90;77.90;;;;;;5048418;28;20461;-66
2021/07/16 02:22:55;;;;;;;15.45;3.35;;;20.90;77.90;;;;;;5019334;28;20026;-66
2021/07/16 02:25:22;;;;;;;19.50;4.20;;;20.90;77.90;;;;;;5021040;28;20040;-66
2021/07/16 02:27:49;;;;;;;18.40;3.60;;;20.90;77.90;;;;;;5033768;28;20361;-66
2021/07/16 02:30:16;;;;;;;25.30;4.15;;;20.90;77.90;;;;;;5027272;28;20100;-66
2021/07/16 02:32:42;;;;;;;23.05;3.22;;;20.80;77.70;;;;;;5016325;28;20034;-67
2021/07/16 02:35:09;;;;;;;21.25;3.92;;;20.80;77.70;;;;;;5027218;28;20028;-67
2021/07/16 02:37:36;;;;;;;18.80;3.53;;;20.90;77.70;;;;;;5023572;28;20029;-66
2021/07/16 02:40:04;;;;;;;31.27;4.03;;;20.80;77.70;;;;;;5024542;28;20492;-66
2021/07/16 02:42:30;;;;;;;23.30;3.60;;;20.90;77.80;;;;;;5015349;28;20033;-66
2021/07/16 02:44:55;;;;;;;19.67;3.38;;;20.80;77.70;;;;;;5023192;28;20044;-67
2021/07/16 02:47:21;;;;;;;17.38;3.55;;;20.80;77.80;;;;;;5032187;28;20086;-66
2021/07/16 02:49:47;;;;;;;20.52;4.47;;;20.80;78.00;;;;;;5033190;28;20025;-66
2021/07/16 02:52:12;;;;;;;22.02;3.58;;;20.80;78.10;;;;;;5026162;28;20026;-66
2021/07/16 02:54:38;;;;;;;18.95;3.58;;;20.80;78.20;;;;;;5026749;28;20032;-66
2021/07/16 02:57:04;;;;;;;18.98;3.47;;;20.80;78.30;;;;;;5019370;28;20441;-67
2021/07/16 02:59:29;;;;;;;22.08;3.83;;;20.70;78.30;;;;;;5015938;28;20026;-66
2021/07/16 03:01:57;;;;;;;24.05;4.07;;;20.70;78.40;;;;;;5023173;28;20164;-67
2021/07/16 03:04:23;;;;;;;16.52;4.00;;;20.70;78.40;;;;;;5034179;28;20037;-66
2021/07/16 03:06:49;;;;;;;17.73;3.08;;;20.70;78.40;;;;;;5035657;28;20047;-66
2021/07/16 03:09:15;;;;;;;23.30;4.00;;;20.70;78.20;;;;;;5013286;28;20042;-67
2021/07/16 03:11:41;;;;;;;25.40;4.15;;;20.80;78.30;;;;;;5034885;28;20033;-66
2021/07/16 03:14:07;;;;;;;18.27;3.80;;;20.70;78.20;;;;;;5033379;28;20030;-66
2021/07/16 03:16:32;;;;;;;22.98;3.50;;;20.70;78.10;;;;;;5027132;28;20021;-66
2021/07/16 03:18:59;;;;;;;22.48;3.67;;;20.80;78.20;;;;;;5033023;28;20489;-66
2021/07/16 03:21:25;;;;;;;18.55;3.35;;;20.80;78.20;;;;;;5017904;28;20092;-66
2021/07/16 03:23:51;;;;;;;18.80;3.20;;;20.70;78.20;;;;;;5015406;28;20041;-66
2021/07/16 03:26:16;;;;;;;26.13;3.67;;;20.70;78.20;;;;;;5013903;28;20030;-66
2021/07/16 03:28:42;;;;;;;28.77;3.72;;;20.70;78.30;;;;;;5017784;28;20527;-66
2021/07/16 03:31:08;;;;;;;15.77;3.80;;;20.70;78.30;;;;;;5016202;28;20068;-66
2021/07/16 03:33:35;;;;;;;24.88;3.53;;;20.70;78.40;;;;;;5013404;28;20473;-67
2021/07/16 03:36:01;;;;;;;28.25;3.50;;;20.70;78.50;;;;;;5025935;28;20033;-66
2021/07/16 03:38:27;;;;;;;24.95;4.03;;;20.60;78.60;;;;;;5022679;28;20108;-66
2021/07/16 03:40:55;;;;;;;21.65;3.28;;;20.60;79.30;;;;;;5019469;28;20460;-66
2021/07/16 03:43:21;;;;;;;17.60;3.22;;;20.70;78.80;;;;;;5026028;28;20030;-66
2021/07/16 03:45:47;;;;;;;29.73;4.25;;;20.60;78.90;;;;;;5019441;28;20072;-66
2021/07/16 03:48:13;;;;;;;19.33;3.50;;;20.70;78.90;;;;;;5014073;28;20066;-66
2021/07/16 03:50:39;;;;;;;17.35;4.03;;;20.70;79.00;;;;;;5013809;28;20033;-66
2021/07/16 03:53:05;;;;;;;25.00;4.32;;;20.70;78.90;;;;;;5016700;28;20030;-66
2021/07/16 03:55:31;;;;;;;21.67;3.47;;;20.70;79.00;;;;;;5012114;28;20539;-67
2021/07/16 03:57:58;;;;;;;24.75;4.75;;;20.70;79.00;;;;;;5020770;28;20056;-66
2021/07/16 04:00:28;;;;;;;20.30;3.50;;;20.70;79.00;;;;;;5020937;28;20367;-66
2021/07/16 04:02:54;;;;;;;26.90;4.13;;;20.70;78.90;;;;;;5020511;28;20068;-66
2021/07/16 04:05:20;;;;;;;30.45;3.88;;;20.70;79.00;;;;;;5018665;28;20504;-67
2021/07/16 04:07:46;;;;;;;23.05;3.40;;;20.70;79.00;;;;;;5019872;28;20085;-66
2021/07/16 04:10:22;;;;;;;21.85;4.60;;;20.70;78.80;;;;;;5026404;28;20025;-67
2021/07/16 04:12:56;;;;;;;34.63;4.53;;;20.70;78.80;;;;;;5013585;28;20030;-66
2021/07/16 04:15:25;;;;;;;15.00;3.72;;;20.70;78.80;;;;;;5021381;28;20038;-66
2021/07/16 04:17:52;;;;;;;18.00;3.30;;;20.70;79.00;;;;;;5037789;28;20136;-66
2021/07/16 04:20:17;;;;;;;17.20;3.65;;;20.60;79.00;;;;;;5029998;28;20077;-66
2021/07/16 04:22:45;;;;;;;29.40;4.47;;;20.60;79.00;;;;;;5026000;28;20062;-66
2021/07/16 04:25:14;;;;;;;23.35;3.78;;;20.60;79.10;;;;;;5015609;28;20038;-66
2021/07/16 04:27:41;;;;;;;26.08;4.25;;;20.60;79.30;;;;;;5030136;28;20033;-66
2021/07/16 04:30:08;;;;;;;20.42;3.65;;;20.60;79.50;;;;;;5038078;28;20056;-67
2021/07/16 04:32:34;;;;;;;26.05;3.90;;;20.60;79.60;;;;;;5030030;28;20044;-66
2021/07/16 04:34:59;;;;;;;26.90;4.10;;;20.60;79.60;;;;;;5030464;28;20112;-66
2021/07/16 04:37:25;;;;;;;25.65;3.92;;;20.60;79.70;;;;;;5044494;28;20026;-66
2021/07/16 04:39:51;;;;;;;24.92;4.10;;;20.60;79.70;;;;;;5016407;28;20120;-66
2021/07/16 04:42:16;;;;;;;23.05;3.92;;;20.60;79.80;;;;;;5019619;28;20022;-66
2021/07/16 04:44:42;;;;;;;27.13;5.20;;;20.60;79.90;;;;;;5033586;28;20472;-66
2021/07/16 04:47:08;;;;;;;25.42;4.22;;;20.60;79.90;;;;;;5021001;28;20061;-66
2021/07/16 04:49:33;;;;;;;25.70;4.75;;;20.60;80.00;;;;;;5022442;28;20044;-66
2021/07/16 04:52:00;;;;;;;23.73;5.25;;;20.60;80.10;;;;;;5019117;28;20026;-66
2021/07/16 04:54:26;;;;;;;26.23;4.75;;;20.60;80.10;;;;;;5013957;28;20034;-66
2021/07/16 04:56:53;;;;;;;25.90;4.55;;;20.60;80.10;;;;;;5014743;28;20439;-66
2021/07/16 04:59:18;;;;;;;26.35;4.30;;;20.60;80.20;;;;;;5014212;28;20037;-66
2021/07/16 05:01:44;;;;;;;22.00;4.03;;;20.60;80.20;;;;;;5032480;28;20037;-66
2021/07/16 05:04:10;;;;;;;32.25;4.40;;;20.60;80.30;;;;;;5015166;28;20030;-66
2021/07/16 05:06:36;;;;;;;22.92;4.30;;;20.60;80.30;;;;;;5014693;28;20095;-66
2021/07/16 05:09:03;;;;;;;28.77;5.55;;;20.60;80.40;;;;;;5014855;28;20042;-66
2021/07/16 05:11:30;;;;;;;33.60;4.70;;;20.60;80.40;;;;;;5030055;28;20033;-66
2021/07/16 05:13:56;;;;;;;19.05;4.78;;;20.60;80.40;;;;;;5019823;28;20474;-67
2021/07/16 05:16:22;;;;;;;27.73;4.40;;;20.60;80.40;;;;;;5042098;28;20036;-66
2021/07/16 05:18:47;;;;;;;28.20;4.53;;;20.60;80.50;;;;;;5030552;28;20052;-66
2021/07/16 05:21:14;;;;;;;28.13;4.25;;;20.60;80.60;;;;;;5029567;28;20096;-66
2021/07/16 05:23:41;;;;;;;28.30;4.13;;;20.60;80.80;;;;;;5019874;28;20380;-66
2021/07/16 05:26:07;;;;;;;23.60;4.70;;;20.70;80.50;;;;;;5019260;28;20030;-66
2021/07/16 05:28:33;;;;;;;28.90;4.20;;;20.60;80.30;;;;;;5014023;28;20482;-66
2021/07/16 05:30:58;;;;;;;23.52;3.83;;;20.70;80.40;;;;;;5018596;28;20115;-67
2021/07/16 05:33:24;;;;;;;29.17;5.00;;;20.60;80.30;;;;;;5016088;28;20033;-66
2021/07/16 05:35:50;;;;;;;26.27;4.85;;;20.70;80.40;;;;;;5014525;28;20112;-69
2021/07/16 05:38:17;;;;;;;23.15;3.45;;;20.70;80.40;;;;;;5019410;28;20037;-67
2021/07/16 05:40:43;;;;;;;43.97;4.95;;;20.70;80.50;;;;;;5011323;28;20026;-67
2021/07/16 05:43:09;;;;;;;25.83;5.43;;;20.70;80.50;;;;;;5013751;28;20517;-67
2021/07/16 05:45:36;;;;;;;23.25;3.95;;;20.70;80.50;;;;;;5017398;28;20040;-67
2021/07/16 05:48:03;;;;;;;20.83;3.65;;;20.70;80.40;;;;;;5010775;28;20045;-67
2021/07/16 05:50:30;;;;;;;27.77;4.47;;;20.70;80.30;;;;;;5014434;28;20369;-67
2021/07/16 05:52:56;;;;;;;24.00;4.53;;;20.70;80.30;;;;;;5016899;28;20025;-68
2021/07/16 05:55:22;;;;;;;25.42;3.83;;;20.70;80.40;;;;;;5009994;28;20548;-67
2021/07/16 05:57:47;;;;;;;24.08;4.25;;;20.70;80.20;;;;;;5010921;28;20480;-67
2021/07/16 06:00:14;;;;;;;18.67;3.80;;;20.70;80.30;;;;;;5013694;28;20033;-67
2021/07/16 06:02:40;;;;;;;26.50;4.28;;;20.70;80.20;;;;;;5013829;28;20040;-67
2021/07/16 06:05:06;;;;;;;20.77;4.13;;;20.70;80.30;;;;;;5016236;28;20041;-67
2021/07/16 06:07:32;;;;;;;22.65;4.32;;;20.70;80.30;;;;;;5015028;28;20091;-67
2021/07/16 06:09:58;;;;;;;28.00;3.90;;;20.70;80.20;;;;;;5018545;28;20161;-67
2021/07/16 06:12:23;;;;;;;21.65;4.20;;;20.70;80.20;;;;;;5013974;28;20069;-67
2021/07/16 06:14:54;;;;;;;30.13;3.88;;;20.70;80.30;;;;;;5015106;28;20029;-67
2021/07/16 06:17:20;;;;;;;23.33;3.97;;;20.70;80.40;;;;;;5014631;28;20038;-67
2021/07/16 06:19:46;;;;;;;27.00;3.78;;;20.70;80.50;;;;;;5021266;28;20034;-67
2021/07/16 06:22:11;;;;;;;30.58;4.28;;;20.70;80.60;;;;;;5021772;28;20409;-67
2021/07/16 06:24:37;;;;;;;31.10;4.50;;;20.70;80.60;;;;;;5023597;28;20022;-67
2021/07/16 06:27:03;;;;;;;30.02;4.97;;;20.70;80.50;;;;;;5019397;28;20525;-67
2021/07/16 06:29:29;;;;;;;22.52;3.90;;;20.70;80.50;;;;;;5021540;28;20041;-67
2021/07/16 06:31:55;;;;;;;24.48;4.50;;;20.70;80.60;;;;;;5016977;28;20136;-67
2021/07/16 06:34:21;;;;;;;23.17;4.72;;;20.80;80.60;;;;;;5016713;28;20145;-67
2021/07/16 06:36:46;;;;;;;27.25;4.90;;;20.70;80.60;;;;;;5016616;28;20033;-67
2021/07/16 06:39:12;;;;;;;26.90;4.95;;;20.80;80.70;;;;;;5023984;28;20040;-67
2021/07/16 06:41:38;;;;;;;28.85;4.68;;;20.80;80.60;;;;;;5021040;28;20108;-68
2021/07/16 06:44:03;;;;;;;34.20;5.75;;;20.80;80.70;;;;;;5019382;28;20033;-70
2021/07/16 06:46:29;;;;;;;29.77;3.92;;;20.80;80.70;;;;;;5017506;28;20084;-67
2021/07/16 06:48:55;;;;;;;27.77;5.32;;;20.80;80.70;;;;;;5023862;28;20037;-71
2021/07/16 06:51:21;;;;;;;31.98;5.15;;;20.80;80.70;;;;;;5016746;28;20120;-71
2021/07/16 06:53:47;;;;;;;24.42;4.32;;;20.90;80.80;;;;;;5022142;28;20101;-71
2021/07/16 06:56:13;;;;;;;30.65;5.15;;;20.90;80.80;;;;;;5019381;28;20462;-67
2021/07/16 06:58:38;;;;;;;28.40;4.03;;;20.90;80.80;;;;;;5016537;28;20058;-69
2021/07/16 07:01:04;;;;;;;25.92;5.55;;;20.90;80.60;;;;;;5021029;28;20041;-69
2021/07/16 07:03:29;;;;;;;26.17;4.00;;;20.90;80.80;;;;;;5016993;28;20038;-70
2021/07/16 07:05:55;;;;;;;28.50;5.10;;;20.90;80.70;;;;;;5017252;28;20073;-67
2021/07/16 07:08:21;;;;;;;24.80;4.55;;;20.90;80.70;;;;;;5020105;28;20132;-66
2021/07/16 07:10:47;;;;;;;36.28;5.78;;;20.90;80.80;;;;;;5016692;28;20116;-67
2021/07/16 07:13:12;;;;;;;24.67;4.22;;;20.90;80.60;;;;;;5016100;28;20536;-67
2021/07/16 07:15:38;;;;;;;23.98;5.35;;;21.00;80.80;;;;;;5015320;28;20036;-66
2021/07/16 07:18:05;;;;;;;27.83;4.05;;;20.90;81.10;;;;;;5023485;28;20046;-68
2021/07/16 07:20:32;;;;;;;28.92;5.15;;;21.00;80.90;;;;;;5017035;28;20425;-67
2021/07/16 07:22:59;;;;;;;27.90;4.60;;;21.00;81.00;;;;;;5022419;28;20398;-71
2021/07/16 07:25:25;;;;;;;30.42;4.88;;;21.00;81.00;;;;;;5019462;28;20022;-71
2021/07/16 07:27:51;;;;;;;27.23;3.95;;;21.00;80.70;;;;;;5014442;28;20030;-71
2021/07/16 07:30:17;;;;;;;31.42;5.15;;;21.10;80.90;;;;;;5023586;28;20052;-66
2021/07/16 07:32:43;;;;;;;24.50;4.13;;;21.10;80.80;;;;;;5023314;28;20053;-68
2021/07/16 07:35:09;;;;;;;25.88;4.05;;;21.00;81.00;;;;;;5033997;28;20462;-66
2021/07/16 07:37:35;;;;;;;22.05;4.47;;;21.10;80.80;;;;;;5025483;28;20026;-66
2021/07/16 07:40:02;;;;;;;33.42;4.40;;;21.10;80.90;;;;;;5013570;28;20049;-66
2021/07/16 07:42:27;;;;;;;28.05;4.15;;;21.10;80.70;;;;;;5024900;28;20022;-66
2021/07/16 07:44:54;;;;;;;18.08;3.92;;;21.20;80.90;;;;;;5027423;28;20030;-67
2021/07/16 07:47:21;;;;;;;28.00;5.00;;;21.20;80.60;;;;;;5025245;28;20359;-66
2021/07/16 07:49:47;;;;;;;34.60;4.78;;;21.20;80.60;;;;;;5020085;28;20121;-66
2021/07/16 07:52:13;;;;;;;35.63;5.15;;;21.20;80.60;;;;;;5023861;28;20022;-66
2021/07/16 07:54:38;;;;;;;27.67;4.57;;;21.20;80.40;;;;;;5016703;28;20104;-66
2021/07/16 07:57:04;;;;;;;25.67;4.13;;;21.20;80.60;;;;;;5017617;28;20034;-66
2021/07/16 07:59:31;;;;;;;24.83;4.40;;;21.20;80.70;;;;;;5014614;28;20026;-66
2021/07/16 08:01:56;;;;;;;31.33;5.72;;;21.30;80.80;;;;;;5013626;28;20060;-66
2021/07/16 08:04:22;;;;;;;19.58;4.20;;;21.30;80.70;;;;;;5018183;28;20509;-67
2021/07/16 08:06:47;;;;;;;20.83;4.82;;;21.30;80.70;;;;;;5024323;28;20037;-66
2021/07/16 08:09:14;;;;;;;24.27;4.65;;;21.30;81.10;;;;;;5023107;28;20434;-66
2021/07/16 08:11:40;;;;;;;28.15;4.28;;;21.30;80.60;;;;;;5039494;28;20071;-66
2021/07/16 08:14:06;;;;;;;27.65;4.40;;;21.30;80.40;;;;;;5028081;28;20045;-67
2021/07/16 08:16:31;;;;;;;31.15;4.63;;;21.30;80.20;;;;;;5025990;28;20057;-66
2021/07/16 08:18:57;;;;;;;37.38;4.72;;;21.30;80.30;;;;;;5041167;28;20071;-67
2021/07/16 08:21:24;;;;;;;38.90;5.55;;;21.30;80.20;;;;;;5019224;28;20403;-66
2021/07/16 08:23:50;;;;;;;27.48;4.43;;;21.30;80.20;;;;;;5020598;28;20083;-66
2021/07/16 08:26:18;;;;;;;19.65;3.80;;;21.30;80.20;;;;;;5029175;28;20037;-67
2021/07/16 08:28:44;;;;;;;29.65;4.13;;;21.40;80.30;;;;;;5012631;28;20496;-67
2021/07/16 08:31:10;;;;;;;29.83;5.20;;;21.40;80.20;;;;;;5025391;28;20057;-67
2021/07/16 08:33:36;;;;;;;31.75;5.15;;;21.40;80.10;;;;;;5014795;28;20065;-66
2021/07/16 08:36:02;;;;;;;19.83;4.15;;;21.40;80.00;;;;;;5012730;28;20062;-66
2021/07/16 08:38:28;;;;;;;24.90;5.32;;;21.40;79.90;;;;;;5013081;28;20058;-66
2021/07/16 08:40:54;;;;;;;32.38;4.75;;;21.50;80.10;;;;;;5013539;28;20018;-67
2021/07/16 08:43:23;;;;;;;24.63;4.60;;;21.40;79.80;;;;;;5023074;28;20033;-67
2021/07/16 08:45:50;;;;;;;24.75;3.83;;;21.50;79.90;;;;;;5026810;28;20028;-67
2021/07/16 08:48:17;;;;;;;17.48;3.92;;;21.50;79.90;;;;;;5021892;28;20049;-66
2021/07/16 08:50:42;;;;;;;32.85;4.68;;;21.50;80.00;;;;;;5016510;28;20028;-66
2021/07/16 08:53:10;;;;;;;25.42;5.00;;;21.50;79.80;;;;;;5021269;28;20045;-66
2021/07/16 08:55:36;;;;;;;32.30;5.13;;;21.50;79.80;;;;;;5014251;28;20371;-67
2021/07/16 08:58:06;;;;;;;28.85;4.95;;;21.50;79.80;;;;;;5013029;28;20479;-67
2021/07/16 09:00:32;;;;;;;25.50;4.50;;;21.60;79.80;;;;;;5015686;28;20029;-67
2021/07/16 09:03:00;;;;;;;17.42;3.85;;;21.60;80.20;;;;;;5016508;28;20426;-67
2021/07/16 09:05:38;;;;;;;24.33;4.93;;;21.60;80.30;;;;;;5015766;28;20381;-67
2021/07/16 09:08:12;;;;;;;22.73;3.95;;;21.60;80.00;;;;;;5015597;28;20109;-66
2021/07/16 09:10:40;;;;;;;21.13;3.50;;;21.70;80.10;;;;;;5013545;28;20812;-68
2021/07/16 09:13:08;;;;;;;26.58;4.03;;;21.60;80.80;;;;;;5014738;28;20141;-67
2021/07/16 09:15:34;;;;;;;25.77;4.68;;;21.70;81.00;;;;;;5023618;28;20044;-67
2021/07/16 09:18:23;;;;;;;21.70;3.42;;;21.70;80.90;;;;;;5030675;28;20116;-67
2021/07/16 09:21:10;;;;;;;22.63;4.60;;;21.80;81.50;;;;;;5029675;28;20044;-66
2021/07/16 09:23:39;;;;;;;19.00;4.22;;;21.80;81.50;;;;;;5010801;28;20095;-67
2021/07/16 09:26:17;;;;;;;25.77;4.13;;;21.80;81.40;;;;;;5010659;28;20442;-67
2021/07/16 09:28:45;;;;;;;24.50;4.35;;;21.80;81.10;;;;;;5011663;28;20442;-67
2021/07/16 09:31:16;;;;;;;28.00;5.43;;;21.80;81.60;;;;;;5025032;28;20075;-67
2021/07/16 09:33:43;;;;;;;21.05;4.00;;;21.80;80.90;;;;;;5011101;28;20668;-67
2021/07/16 09:36:10;;;;;;;24.35;4.82;;;21.80;81.10;;;;;;5011839;28;20073;-67
2021/07/16 09:38:35;;;;;;;23.20;4.18;;;21.80;81.50;;;;;;5023506;28;20040;-67
2021/07/16 09:41:06;;;;;;;21.55;4.10;;;21.80;81.80;;;;;;5011251;28;20034;-67
2021/07/16 09:43:32;;;;;;;18.98;3.78;;;21.90;81.70;;;;;;5024403;28;20037;-68
2021/07/16 09:46:00;;;;;;;19.90;4.00;;;21.90;81.70;;;;;;5010453;28;20030;-68
2021/07/16 09:48:29;;;;;;;25.55;4.57;;;21.90;81.70;;;;;;5018412;28;20124;-68
2021/07/16 09:51:15;;;;;;;25.67;5.20;;;21.90;81.70;;;;;;5013157;28;20030;-68
2021/07/16 09:53:49;;;;;;;20.23;4.00;;;22.00;82.10;;;;;;5012440;28;20026;-67
2021/07/16 09:56:24;;;;;;;31.23;4.28;;;22.00;81.70;;;;;;5013298;28;20041;-68
2021/07/16 09:59:00;;;;;;;28.00;5.53;;;22.00;81.80;;;;;;5010636;28;20030;-71
2021/07/16 10:01:28;;;;;;;29.73;5.50;;;22.00;81.60;;;;;;5011800;28;20052;-68
2021/07/16 10:03:57;;;;;;;19.45;4.13;;;22.00;81.40;;;;;;5017207;28;20470;-67
2021/07/16 10:06:23;;;;;;;24.20;5.75;;;22.00;81.30;;;;;;5013368;28;20053;-68
2021/07/16 10:08:49;;;;;;;25.70;4.82;;;22.00;81.00;;;;;;5018329;28;20041;-68
2021/07/16 10:11:19;;;;;;;25.67;4.47;;;22.10;81.00;;;;;;5016352;28;20026;-68
2021/07/16 10:13:47;;;;;;;32.45;4.85;;;22.10;80.90;;;;;;5018026;28;20060;-68
2021/07/16 10:16:13;;;;;;;20.85;4.32;;;22.10;81.30;;;;;;5014327;28;20105;-68
2021/07/16 10:18:46;;;;;;;27.92;4.53;;;22.10;81.40;;;;;;5037647;28;20056;-68
2021/07/16 10:21:11;;;;;;;23.13;4.00;;;22.10;81.40;;;;;;5032523;28;20436;-68
2021/07/16 10:23:40;;;;;;;20.35;4.00;;;22.10;81.30;;;;;;5017822;28;20025;-68
2021/07/16 10:26:12;;;;;;;26.13;4.35;;;22.20;81.60;;;;;;5011462;28;20497;-68
2021/07/16 10:28:40;;;;;;;19.02;4.38;;;22.20;81.80;;;;;;5011237;28;20045;-68
2021/07/16 10:31:29;;;;;;;29.02;5.90;;;22.30;82.00;;;;;;5020076;28;20047;-68
2021/07/16 10:33:56;;;;;;;21.52;4.85;;;22.20;81.60;;;;;;5012397;28;20038;-68
2021/07/16 10:36:37;;;;;;;21.70;3.72;;;22.20;81.50;;;;;;5022796;28;20377;-68
2021/07/16 10:39:05;;;;;;;20.63;3.95;;;22.30;81.50;;;;;;5018652;28;20113;-68
2021/07/16 10:41:35;;;;;;;23.73;5.32;;;22.30;81.50;;;;;;5017502;28;20108;-68
2021/07/16 10:44:01;;;;;;;25.05;4.63;;;22.40;81.00;;;;;;5016911;28;20079;-68
2021/07/16 10:46:30;;;;;;;24.33;5.18;;;22.40;80.90;;;;;;5018162;28;20026;-68
2021/07/16 10:48:56;;;;;;;14.70;4.38;;;22.30;81.10;;;;;;5017227;28;20054;-74
2021/07/16 10:51:24;;;;;;;23.45;4.55;;;22.40;80.40;;;;;;5022970;28;20505;-68
2021/07/16 10:53:51;;;;;;;19.65;3.25;;;22.40;80.80;;;;;;5013710;28;20037;-68
2021/07/16 10:56:19;;;;;;;24.95;4.00;;;22.40;81.20;;;;;;5013445;28;20041;-69
2021/07/16 10:58:49;;;;;;;29.02;4.97;;;22.40;81.40;;;;;;5016783;28;20026;-68
2021/07/16 11:01:37;;;;;;;27.63;4.78;;;22.50;81.40;;;;;;5017823;28;20032;-68
2021/07/16 11:04:05;;;;;;;33.67;5.45;;;22.50;81.00;;;;;;5015760;28;20029;-68
2021/07/16 11:06:51;;;;;;;28.75;5.32;;;22.50;80.70;;;;;;5016004;28;20049;-69
2021/07/16 11:09:35;;;;;;;31.08;5.32;;;22.50;80.20;;;;;;5016610;28;20424;-71
2021/07/16 11:12:19;;;;;;;;;;;22.50;80.50;;;;;;5021986;28;20037;-68
2021/07/16 11:14:48;;;;;;;25.13;4.90;;;22.60;81.10;;;;;;5019019;28;19909;-68
2021/07/16 11:17:37;;;;;;;32.35;6.00;;;22.60;80.70;;;;;;5019293;28;20169;-68
2021/07/16 11:20:15;;;;;;;30.63;5.82;;;22.70;80.70;;;;;;5047423;28;20060;-69
2021/07/16 11:23:03;;;;;;;26.52;4.75;;;22.60;80.70;;;;;;5020500;28;20030;-69
2021/07/16 11:25:29;;;;;;;23.73;4.45;;;22.70;80.50;;;;;;5014777;28;20025;-69
2021/07/16 11:27:55;;;;;;;28.55;5.18;;;22.70;80.70;;;;;;5014497;28;20441;-69
2021/07/16 11:30:21;;;;;;;28.55;4.57;;;22.70;80.50;;;;;;5020448;28;20034;-69
2021/07/16 11:32:50;;;;;;;34.92;6.13;;;22.70;80.60;;;;;;5014245;28;20022;-68
2021/07/16 11:35:15;;;;;;;25.13;4.97;;;22.80;79.90;;;;;;5025413;28;20381;-68
2021/07/16 11:37:49;;;;;;;20.95;4.45;;;22.80;80.10;;;;;;5013490;28;20419;-68
2021/07/16 11:40:27;;;;;;;;;;;22.80;80.50;;;;;;5026493;28;20418;-68
2021/07/16 11:42:55;;;;;;;24.95;5.47;;;22.90;81.80;;;;;;5021852;28;19917;-68
2021/07/16 11:45:24;;;;;;;23.88;5.38;;;22.90;80.60;;;;;;5014925;28;20030;-68
2021/07/16 11:47:50;;;;;;;30.15;5.28;;;22.90;80.60;;;;;;5037062;28;20104;-68
2021/07/16 11:50:16;;;;;;;29.98;5.10;;;22.90;80.10;;;;;;5025769;28;20040;-68
2021/07/16 11:52:47;;;;;;;31.88;5.93;;;22.90;80.50;;;;;;5024971;28;20084;-69
2021/07/16 11:55:21;;;;;;;24.73;4.80;;;23.00;80.30;;;;;;5022802;28;20071;-69
2021/07/16 11:57:50;;;;;;;25.75;5.25;;;23.00;79.30;;;;;;5034073;28;20096;-69
2021/07/16 12:00:17;;;;;;;30.60;5.45;;;23.00;80.20;;;;;;5026717;28;20068;-69
2021/07/16 12:02:43;;;;;;;26.40;4.45;;;23.00;79.30;;;;;;5022289;28;20060;-69
2021/07/16 12:05:11;;;;;;;20.88;4.32;;;23.10;80.10;;;;;;5024441;28;20030;-69
2021/07/16 12:07:41;;;;;;;31.10;5.60;;;23.10;80.30;;;;;;5013803;28;20049;-68
2021/07/16 12:10:19;;;;;;;23.55;4.20;;;23.20;80.40;;;;;;5019523;28;20393;-69
2021/07/16 12:12:45;;;;;;;21.02;5.05;;;23.20;80.20;;;;;;5025376;28;20049;-69
2021/07/16 12:15:26;;;;;;;39.42;6.50;;;23.30;80.40;;;;;;5029745;28;20492;-69
2021/07/16 12:17:52;;;;;;;29.10;5.20;;;23.30;79.90;;;;;;5016758;28;20100;-69
2021/07/16 12:20:20;;;;;;;22.33;5.32;;;23.30;80.30;;;;;;5038617;28;20092;-69
2021/07/16 12:22:47;;;;;;;23.45;4.50;;;23.30;80.30;;;;;;5012471;28;20026;-69
2021/07/16 12:25:15;;;;;;;20.65;4.22;;;23.40;79.30;;;;;;5012674;28;20448;-68
2021/07/16 12:27:41;;;;;;;23.98;4.70;;;23.40;77.90;;;;;;5019263;28;20022;-69
2021/07/16 12:30:09;;;;;;;25.13;5.20;;;23.30;78.10;;;;;;5019346;28;20448;-69
2021/07/16 12:32:44;;;;;;;24.33;5.78;;;23.40;78.80;;;;;;5020539;28;20384;-72
2021/07/16 12:35:27;;;;;;;21.63;4.03;;;23.40;78.60;;;;;;5023709;28;20018;-68
2021/07/16 12:38:00;;;;;;;35.05;5.32;;;23.50;79.30;;;;;;5032023;28;20362;-68
2021/07/16 12:40:26;;;;;;;31.27;6.18;;;23.60;79.40;;;;;;5020387;28;20029;-68
2021/07/16 12:43:00;;;;;;;20.60;4.25;;;23.60;80.10;;;;;;5023415;28;20116;-69